Terminal Aerodrome Forecast
Issued by NWS Paducah, KY

Home | Current Version | Previous Version | Text Only | Print | Product List | Glossary Off
Versions: 1 2 3 4 5 6 7 8 9 10 11 12 13 14 15 16 17 18 19 20 21 22 23 24

000
FTUS43 KPAH 280520
TAFPAH
TAF
KPAH 280520Z 2806/2906 32003KT P6SM BKN016
      TEMPO 2806/2809 4SM BR SCT016
     FM281400 02007KT P6SM BKN020
     FM282200 04005KT P6SM OVC050=

USA.gov is the U.S. government's official web portal to all federal, state and local government web resources and services.